Time;durP1;ratioP1;P1;durP2;ratioP2;P2;SDS_P1;SDS_P2;PMS_P1;PMS_P2;Temp;Humidity;BMP_temperature;BMP_pressure;BME280_temperature;BME280_humidity;BME280_pressure;Samples;Min_cycle;Max_cycle;Signal;HPM_P1;HPM_P2
2022/12/09 00:02:20;;;;;;;11.65;9.32;;;3.20;53.60;;;;;;5024976;28;20040;-74
2022/12/09 00:05:05;;;;;;;10.65;8.82;;;3.10;53.50;;;;;;5021445;28;20052;-74
2022/12/09 00:07:49;;;;;;;9.50;8.52;;;3.10;53.50;;;;;;5021524;28;20064;-73
2022/12/09 00:10:34;;;;;;;10.27;8.40;;;3.00;53.40;;;;;;5021114;28;20531;-74
2022/12/09 00:13:18;;;;;;;10.77;7.97;;;3.00;53.40;;;;;;5021264;28;20394;-74
2022/12/09 00:16:08;;;;;;;9.85;8.75;;;2.90;53.30;;;;;;5016647;28;20092;-74
2022/12/09 00:18:53;;;;;;;10.80;9.32;;;2.90;53.40;;;;;;5015472;28;20039;-74
2022/12/09 00:21:37;;;;;;;10.32;8.13;;;2.80;53.20;;;;;;5019245;28;20646;-74
2022/12/09 00:24:22;;;;;;;10.05;8.40;;;2.80;53.30;;;;;;5020566;28;20273;-74
2022/12/09 00:27:06;;;;;;;9.40;8.43;;;2.70;53.20;;;;;;5020819;28;20324;-74
2022/12/09 00:29:51;;;;;;;10.05;9.05;;;2.70;53.20;;;;;;5022189;28;20126;-74
2022/12/09 00:32:35;;;;;;;10.30;8.98;;;2.60;53.00;;;;;;5019287;28;20248;-74
2022/12/09 00:35:21;;;;;;;10.13;9.00;;;2.50;52.90;;;;;;5022484;28;20145;-75
2022/12/09 00:38:05;;;;;;;12.35;9.15;;;2.50;53.00;;;;;;5021460;28;20044;-74
2022/12/09 00:40:50;;;;;;;11.73;9.40;;;2.50;53.00;;;;;;5027679;28;20091;-74
2022/12/09 00:43:35;;;;;;;11.05;9.60;;;2.40;52.90;;;;;;5030026;28;20157;-74
2022/12/09 00:46:20;;;;;;;12.00;9.23;;;2.40;53.00;;;;;;5025807;28;20107;-75
2022/12/09 00:49:04;;;;;;;15.00;9.48;;;2.40;53.00;;;;;;5028881;28;20052;-74
2022/12/09 00:51:49;;;;;;;12.30;9.23;;;2.30;52.80;;;;;;5039807;28;20141;-74
2022/12/09 00:54:34;;;;;;;12.98;9.65;;;2.30;52.90;;;;;;5016615;28;20053;-74
2022/12/09 00:57:18;;;;;;;12.35;8.88;;;2.20;52.70;;;;;;5011275;28;20068;-74
2022/12/09 01:00:04;;;;;;;10.20;9.10;;;2.20;52.80;;;;;;5031272;28;20628;-74
2022/12/09 01:02:49;;;;;;;10.65;9.35;;;2.20;52.80;;;;;;5031178;28;20087;-74
2022/12/09 01:05:34;;;;;;;11.32;9.20;;;2.10;52.70;;;;;;5014350;28;20076;-74
2022/12/09 01:08:19;;;;;;;13.45;8.82;;;2.10;52.70;;;;;;5011904;28;20201;-74
2022/12/09 01:11:14;;;;;;;10.20;8.85;;;2.00;52.60;;;;;;5012645;28;20417;-74
2022/12/09 01:14:00;;;;;;;9.45;8.23;;;2.00;52.60;;;;;;5024224;28;20246;-74
2022/12/09 01:16:45;;;;;;;11.73;9.20;;;1.90;52.40;;;;;;5009266;28;20095;-74
2022/12/09 01:19:30;;;;;;;12.15;9.18;;;1.90;52.50;;;;;;5013644;28;20045;-74
2022/12/09 01:22:15;;;;;;;10.48;9.43;;;1.90;52.50;;;;;;5012445;28;20131;-74
2022/12/09 01:25:00;;;;;;;10.05;8.80;;;1.90;52.60;;;;;;5023247;28;20191;-74
2022/12/09 01:27:44;;;;;;;9.50;8.50;;;1.80;52.40;;;;;;5022514;28;20052;-75
2022/12/09 01:30:29;;;;;;;10.68;8.75;;;1.70;52.30;;;;;;5019273;28;20108;-75
2022/12/09 01:33:13;;;;;;;10.00;8.07;;;1.70;52.30;;;;;;5024290;28;20055;-75
2022/12/09 01:35:58;;;;;;;10.82;8.77;;;1.70;52.40;;;;;;5022503;28;20052;-75
2022/12/09 01:38:43;;;;;;;10.45;9.05;;;1.60;52.20;;;;;;5023374;28;20083;-74
2022/12/09 01:41:28;;;;;;;10.40;8.45;;;1.60;52.30;;;;;;5023818;28;20567;-75
2022/12/09 01:44:20;;;;;;;10.90;8.55;;;1.60;52.30;;;;;;5014868;28;20048;-74
2022/12/09 01:47:21;;;;;;;9.77;8.40;;;1.50;52.20;;;;;;5015536;28;20052;-74
2022/12/09 01:50:06;;;;;;;10.05;8.73;;;1.50;52.20;;;;;;5004050;28;20390;-74
2022/12/09 01:52:52;;;;;;;10.00;8.98;;;1.50;52.20;;;;;;5022164;28;20091;-74
2022/12/09 01:55:37;;;;;;;11.07;8.90;;;1.50;52.20;;;;;;5021863;28;20061;-74
2022/12/09 01:58:23;;;;;;;11.27;9.00;;;1.40;52.00;;;;;;5009126;28;20504;-74
2022/12/09 02:01:10;;;;;;;12.05;8.05;;;1.40;52.10;;;;;;5009836;28;20040;-74
2022/12/09 02:03:55;;;;;;;10.55;8.93;;;1.40;52.10;;;;;;5008704;28;20113;-74
2022/12/09 02:06:40;;;;;;;10.02;8.95;;;1.30;52.00;;;;;;5022718;28;20080;-74
2022/12/09 02:09:27;;;;;;;10.43;9.02;;;1.30;52.30;;;;;;5015296;28;20168;-74
2022/12/09 02:12:23;;;;;;;9.90;7.90;;;1.30;52.00;;;;;;5007446;28;20670;-74
2022/12/09 02:15:42;;;;;;;8.98;7.47;;;1.20;51.90;;;;;;5003077;28;20416;-74
2022/12/09 02:18:43;;;;;;;10.25;7.78;;;1.20;51.90;;;;;;4997502;28;20048;-74
2022/12/09 02:21:36;;;;;;;9.40;8.10;;;1.20;52.00;;;;;;5018435;28;20102;-74
2022/12/09 02:24:44;;;;;;;9.00;7.88;;;1.10;51.80;;;;;;5023288;28;20056;-74
2022/12/09 02:27:43;;;;;;;12.27;7.38;;;1.10;51.80;;;;;;5007624;28;20041;-74
2022/12/09 02:30:51;;;;;;;11.48;8.02;;;1.00;51.60;;;;;;5005330;28;20045;-74
2022/12/09 02:34:01;;;;;;;13.00;8.27;;;1.00;51.70;;;;;;4998364;28;20102;-74
2022/12/09 02:36:52;;;;;;;8.18;6.43;;;1.00;51.80;;;;;;4996402;28;20125;-74
2022/12/09 02:39:58;;;;;;;9.55;7.40;;;1.00;51.80;;;;;;5018106;28;20052;-74
2022/12/09 02:42:45;;;;;;;10.30;7.40;;;0.90;51.60;;;;;;5022499;28;20532;-74
2022/12/09 02:45:31;;;;;;;8.30;7.40;;;0.90;51.70;;;;;;5020876;28;20068;-74
2022/12/09 02:48:24;;;;;;;8.18;7.32;;;0.90;51.70;;;;;;5010005;28;20071;-74
2022/12/09 02:51:15;;;;;;;11.57;7.45;;;0.90;51.70;;;;;;5016824;28;20119;-74
2022/12/09 02:54:14;;;;;;;8.73;7.15;;;0.80;51.50;;;;;;5025902;28;20478;-74
2022/12/09 02:57:09;;;;;;;8.23;7.40;;;0.80;51.50;;;;;;5002014;28;20045;-74
2022/12/09 02:59:54;;;;;;;9.50;6.95;;;0.80;51.50;;;;;;5025592;28;20044;-73
2022/12/09 03:02:42;;;;;;;12.77;7.90;;;0.80;51.50;;;;;;5028922;28;20106;-74
2022/12/09 03:06:09;;;;;;;8.73;6.53;;;0.70;51.40;;;;;;5026370;28;20437;-73
2022/12/09 03:09:03;;;;;;;8.57;7.30;;;0.70;51.40;;;;;;5010116;28;20503;-74
2022/12/09 03:11:49;;;;;;;10.95;7.28;;;0.70;51.40;;;;;;5026457;28;20051;-74
2022/12/09 03:14:40;;;;;;;9.40;6.95;;;0.70;51.40;;;;;;5022390;28;20123;-75
2022/12/09 03:17:32;;;;;;;9.23;7.70;;;0.60;51.30;;;;;;4995253;28;20099;-75
2022/12/09 03:20:24;;;;;;;10.00;7.90;;;0.60;51.30;;;;;;5023223;28;20152;-74
2022/12/09 03:23:13;;;;;;;9.38;7.80;;;0.60;51.40;;;;;;5026380;28;20043;-75
2022/12/09 03:25:58;;;;;;;8.63;7.72;;;0.60;51.40;;;;;;5010640;28;20045;-75
2022/12/09 03:28:48;;;;;;;10.35;8.10;;;0.50;51.30;;;;;;5013403;28;20115;-75
2022/12/09 03:31:34;;;;;;;11.05;8.60;;;0.50;51.20;;;;;;5025980;28;20179;-75
2022/12/09 03:34:23;;;;;;;10.18;8.15;;;0.50;51.30;;;;;;5026302;28;20608;-75
2022/12/09 03:37:09;;;;;;;11.07;8.45;;;0.50;51.30;;;;;;5023020;28;20040;-75
2022/12/09 03:39:57;;;;;;;10.65;8.63;;;0.50;51.30;;;;;;5021745;28;20495;-75
2022/12/09 03:42:52;;;;;;;10.40;8.70;;;0.50;51.30;;;;;;5008650;28;20044;-74
2022/12/09 03:45:36;;;;;;;10.68;8.15;;;0.50;51.40;;;;;;5016237;28;20216;-74
2022/12/09 03:48:22;;;;;;;10.02;7.78;;;0.50;51.40;;;;;;5016829;28;20413;-74
2022/12/09 03:51:20;;;;;;;10.70;8.57;;;0.40;51.20;;;;;;5024135;28;20566;-74
2022/12/09 03:54:32;;;;;;;10.20;8.50;;;0.50;51.30;;;;;;5022905;28;20519;-74
2022/12/09 03:57:19;;;;;;;9.90;8.48;;;0.50;51.30;;;;;;5007782;28;20450;-74
2022/12/09 04:00:04;;;;;;;10.13;9.00;;;0.50;51.80;;;;;;5024462;28;20504;-74
2022/12/09 04:02:56;;;;;;;;;;;0.60;51.30;;;;;;5025100;28;20562;-74
2022/12/09 04:05:41;;;;;;;12.23;7.97;;;0.60;51.30;;;;;;5015995;28;19940;-75
2022/12/09 04:08:26;;;;;;;8.80;7.90;;;0.60;51.20;;;;;;5023928;28;20087;-74
2022/12/09 04:11:10;;;;;;;8.88;7.93;;;0.60;51.20;;;;;;5024883;28;20508;-74
2022/12/09 04:13:55;;;;;;;10.30;9.20;;;0.70;51.40;;;;;;5015284;28;20168;-74
2022/12/09 04:16:39;;;;;;;9.40;8.40;;;0.70;51.40;;;;;;5026445;28;20040;-74
2022/12/09 04:19:24;;;;;;;12.68;8.50;;;0.70;51.30;;;;;;5021279;28;20035;-74
2022/12/09 04:22:09;;;;;;;11.23;8.55;;;0.70;51.30;;;;;;5024177;28;20084;-74
2022/12/09 04:24:54;;;;;;;9.27;8.30;;;0.70;51.90;;;;;;5029201;28;20102;-74
2022/12/09 04:27:38;;;;;;;11.07;8.23;;;0.70;51.30;;;;;;5029617;28;20056;-74
2022/12/09 04:30:23;;;;;;;10.10;8.13;;;0.70;51.30;;;;;;5017465;28;20049;-74
2022/12/09 04:33:07;;;;;;;12.25;8.82;;;0.70;51.30;;;;;;5028547;28;20106;-75
2022/12/09 04:35:52;;;;;;;10.00;8.63;;;0.80;51.50;;;;;;5028553;28;20092;-75
2022/12/09 04:38:37;;;;;;;9.20;8.20;;;0.80;51.50;;;;;;5019578;28;20524;-75
2022/12/09 04:41:22;;;;;;;9.02;8.13;;;0.80;51.50;;;;;;5028972;28;20099;-75
2022/12/09 04:44:06;;;;;;;9.75;8.25;;;0.70;51.30;;;;;;5022130;28;20283;-74
2022/12/09 04:46:51;;;;;;;9.60;7.88;;;0.70;51.30;;;;;;5003795;28;20080;-74
2022/12/09 04:49:35;;;;;;;9.15;8.25;;;0.70;51.40;;;;;;5023849;28;20116;-74
2022/12/09 04:52:20;;;;;;;9.55;8.38;;;0.70;51.40;;;;;;5015108;28;20079;-74
2022/12/09 04:55:05;;;;;;;11.05;9.00;;;0.70;51.50;;;;;;5027464;28;20060;-74
2022/12/09 04:57:50;;;;;;;10.45;8.80;;;0.60;51.40;;;;;;5029355;28;20334;-74
2022/12/09 05:00:34;;;;;;;11.13;8.95;;;0.60;51.40;;;;;;5014397;28;20191;-74
2022/12/09 05:03:19;;;;;;;10.88;9.13;;;0.60;51.40;;;;;;5027953;28;20044;-74
2022/12/09 05:06:06;;;;;;;10.45;8.57;;;0.60;51.40;;;;;;5028789;28;20427;-74
2022/12/09 05:08:51;;;;;;;11.90;8.98;;;0.60;51.50;;;;;;5023832;28;20115;-74
2022/12/09 05:11:35;;;;;;;11.05;8.55;;;0.60;51.50;;;;;;5027146;28;20049;-74
2022/12/09 05:14:19;;;;;;;12.50;9.63;;;0.60;51.40;;;;;;5022908;28;20085;-74
2022/12/09 05:17:06;;;;;;;10.23;8.63;;;0.60;51.50;;;;;;5029830;28;20120;-74
2022/12/09 05:19:51;;;;;;;10.27;8.65;;;0.60;51.40;;;;;;5025986;28;20123;-74
2022/12/09 05:22:35;;;;;;;10.00;9.00;;;0.70;51.60;;;;;;5027047;28;20134;-74
2022/12/09 05:25:20;;;;;;;10.15;8.82;;;0.60;51.40;;;;;;5017518;28;20410;-74
2022/12/09 05:28:04;;;;;;;11.63;9.05;;;0.70;51.50;;;;;;5028545;28;20107;-74
2022/12/09 05:30:49;;;;;;;9.88;8.85;;;0.80;51.70;;;;;;5025459;28;20452;-74
2022/12/09 05:33:34;;;;;;;10.88;8.60;;;0.80;51.70;;;;;;5020034;28;20053;-73
2022/12/09 05:36:23;;;;;;;11.23;9.23;;;0.80;51.60;;;;;;5026378;28;20135;-74
2022/12/09 05:39:07;;;;;;;10.52;9.23;;;0.80;51.60;;;;;;5021849;28;20044;-73
2022/12/09 05:41:52;;;;;;;11.30;8.73;;;0.80;51.50;;;;;;5022397;28;20106;-74
2022/12/09 05:44:36;;;;;;;11.23;9.10;;;0.90;51.70;;;;;;5026467;28;20116;-74
2022/12/09 05:47:21;;;;;;;10.60;9.50;;;0.90;51.70;;;;;;5012502;28;20479;-74
2022/12/09 05:50:07;;;;;;;10.07;8.93;;;1.00;51.80;;;;;;5023355;28;20045;-74
2022/12/09 05:52:51;;;;;;;13.65;10.45;;;1.00;51.80;;;;;;5024321;28;20049;-75
2022/12/09 05:55:40;;;;;;;10.60;8.05;;;1.00;51.80;;;;;;5017081;28;20096;-74
2022/12/09 05:58:25;;;;;;;12.77;9.57;;;1.10;52.00;;;;;;5018217;28;20361;-74
2022/12/09 06:01:10;;;;;;;11.32;8.55;;;1.10;52.50;;;;;;5023184;28;20043;-74
2022/12/09 06:03:55;;;;;;;9.85;8.55;;;1.20;52.00;;;;;;5020130;28;20044;-74
2022/12/09 06:06:39;;;;;;;11.48;9.60;;;1.20;52.00;;;;;;5021732;28;20048;-74
2022/12/09 06:09:24;;;;;;;10.75;9.15;;;1.30;52.20;;;;;;5011994;28;20564;-74
2022/12/09 06:12:09;;;;;;;11.65;9.35;;;1.30;52.10;;;;;;5023929;28;20071;-74
2022/12/09 06:14:54;;;;;;;11.80;9.23;;;1.30;52.10;;;;;;5021531;28;20045;-75
2022/12/09 06:17:39;;;;;;;10.80;8.73;;;1.30;52.10;;;;;;5021106;28;20143;-74
2022/12/09 06:20:24;;;;;;;10.88;9.15;;;1.40;52.30;;;;;;5031389;28;20099;-74
2022/12/09 06:23:09;;;;;;;12.32;10.27;;;1.40;52.20;;;;;;5005461;28;20559;-75
2022/12/09 06:25:53;;;;;;;10.23;9.20;;;1.40;52.20;;;;;;5022409;28;20511;-74
2022/12/09 06:28:38;;;;;;;11.80;9.80;;;1.50;52.40;;;;;;5020254;28;20040;-76
2022/12/09 06:31:23;;;;;;;11.40;9.88;;;1.50;52.30;;;;;;5011644;28;20039;-75
2022/12/09 06:34:07;;;;;;;12.43;9.27;;;1.50;52.30;;;;;;5008567;28;20092;-75
2022/12/09 06:36:51;;;;;;;14.45;9.75;;;1.60;52.50;;;;;;5006961;28;20048;-75
2022/12/09 06:39:36;;;;;;;12.60;9.50;;;1.60;52.50;;;;;;5022731;28;20421;-75
2022/12/09 06:42:20;;;;;;;13.23;9.73;;;1.70;52.60;;;;;;5019273;28;20551;-78
2022/12/09 06:45:06;;;;;;;12.27;9.43;;;1.70;52.60;;;;;;5015852;28;20805;-78
2022/12/09 06:47:50;;;;;;;12.23;10.38;;;1.70;52.60;;;;;;5018113;28;20126;-77
2022/12/09 06:50:36;;;;;;;13.88;10.75;;;1.70;52.60;;;;;;5019779;28;20076;-78
2022/12/09 06:53:20;;;;;;;12.52;10.23;;;1.80;52.70;;;;;;5022286;28;20057;-79
2022/12/09 06:56:07;;;;;;;12.55;10.35;;;1.80;52.70;;;;;;4997603;28;20067;-78
2022/12/09 06:58:52;;;;;;;11.25;10.02;;;1.80;52.70;;;;;;5021675;28;20163;-76
2022/12/09 07:01:37;;;;;;;12.25;10.27;;;1.90;52.90;;;;;;5023351;28;20647;-76
2022/12/09 07:04:22;;;;;;;12.02;10.60;;;1.90;52.90;;;;;;5011664;28;20056;-74
2022/12/09 07:07:09;;;;;;;12.85;11.10;;;1.90;52.90;;;;;;5020956;28;20091;-73
2022/12/09 07:09:53;;;;;;;13.80;10.77;;;1.90;52.90;;;;;;5024974;28;20094;-78
2022/12/09 07:12:38;;;;;;;14.18;11.10;;;2.00;53.00;;;;;;5019764;28;20104;-78
2022/12/09 07:15:23;;;;;;;12.90;11.15;;;2.00;53.00;;;;;;5021403;28;20091;-81
2022/12/09 07:18:08;;;;;;;13.70;10.07;;;2.00;53.00;;;;;;4998980;28;20059;-76
2022/12/09 07:20:52;;;;;;;19.10;12.88;;;2.10;53.30;;;;;;5007633;28;20055;-77
2022/12/09 07:23:37;;;;;;;14.85;11.88;;;2.10;53.50;;;;;;5010077;28;20309;-75
2022/12/09 07:26:21;;;;;;;12.88;11.43;;;2.20;53.70;;;;;;5020520;28;20140;-76
2022/12/09 07:29:07;;;;;;;13.65;11.35;;;2.30;53.90;;;;;;5021165;28;20425;-75
2022/12/09 07:31:51;;;;;;;14.70;11.75;;;2.30;53.80;;;;;;5022107;28;20056;-75
2022/12/09 07:34:37;;;;;;;15.40;11.63;;;2.40;54.60;;;;;;4993266;28;20635;-76
2022/12/09 07:37:21;;;;;;;14.30;11.82;;;2.40;54.00;;;;;;5018480;28;20079;-78
2022/12/09 07:40:07;;;;;;;14.27;10.85;;;2.40;54.10;;;;;;5020550;28;20085;-76
2022/12/09 07:42:51;;;;;;;14.63;11.60;;;2.40;54.10;;;;;;5020027;28;20080;-77
2022/12/09 07:45:38;;;;;;;14.52;12.45;;;2.40;54.10;;;;;;5017252;28;20060;-76
2022/12/09 07:48:22;;;;;;;14.23;12.23;;;2.40;54.20;;;;;;5003887;28;20535;-77
2022/12/09 07:51:07;;;;;;;14.55;12.25;;;2.40;54.20;;;;;;4997695;28;20045;-77
2022/12/09 07:53:52;;;;;;;14.65;13.05;;;2.50;54.40;;;;;;5006525;28;20068;-76
2022/12/09 07:56:37;;;;;;;14.85;12.52;;;2.40;54.20;;;;;;5022299;28;20087;-77
2022/12/09 07:59:21;;;;;;;14.00;12.45;;;2.50;54.40;;;;;;5016900;28;20063;-78
2022/12/09 08:02:07;;;;;;;16.48;12.93;;;2.50;54.40;;;;;;4991591;28;20049;-76
2022/12/09 08:04:52;;;;;;;15.48;13.05;;;2.50;54.60;;;;;;5020624;28;20265;-77
2022/12/09 08:07:36;;;;;;;15.82;12.90;;;2.60;54.80;;;;;;5006476;28;20516;-76
2022/12/09 08:10:21;;;;;;;14.57;11.68;;;2.60;54.70;;;;;;5020051;28;20037;-76
2022/12/09 08:13:05;;;;;;;14.20;12.70;;;2.70;54.90;;;;;;5017457;28;20087;-77
2022/12/09 08:15:50;;;;;;;14.93;12.30;;;2.70;54.90;;;;;;5012610;28;20041;-77
2022/12/09 08:18:35;;;;;;;14.45;12.85;;;2.70;54.90;;;;;;5008564;28;20591;-77
2022/12/09 08:21:22;;;;;;;13.43;11.93;;;2.70;54.90;;;;;;5009534;28;20119;-78
2022/12/09 08:24:07;;;;;;;14.27;12.50;;;2.70;54.90;;;;;;5019954;28;20036;-75
2022/12/09 08:26:51;;;;;;;20.65;13.25;;;2.80;55.60;;;;;;5010895;28;20566;-75
2022/12/09 08:29:36;;;;;;;14.02;12.48;;;2.80;55.00;;;;;;5019903;28;20045;-75
2022/12/09 08:32:21;;;;;;;16.30;12.80;;;2.80;55.10;;;;;;5012876;28;20100;-76
2022/12/09 08:35:06;;;;;;;13.35;11.55;;;2.90;55.80;;;;;;5009822;28;20092;-75
2022/12/09 08:37:50;;;;;;;15.77;12.98;;;2.90;55.20;;;;;;5019835;28;20044;-76
2022/12/09 08:40:35;;;;;;;13.85;12.38;;;2.90;55.20;;;;;;5019413;28;20100;-76
2022/12/09 08:43:20;;;;;;;16.10;13.18;;;3.00;55.40;;;;;;4994215;28;20064;-75
2022/12/09 08:46:04;;;;;;;13.93;12.32;;;3.00;55.30;;;;;;5018685;28;20095;-76
2022/12/09 08:48:49;;;;;;;14.80;13.07;;;3.00;55.30;;;;;;5009888;28;20052;-75
2022/12/09 08:51:34;;;;;;;14.73;12.75;;;3.00;55.30;;;;;;5019449;28;20083;-76
2022/12/09 08:54:19;;;;;;;16.60;13.82;;;3.10;55.60;;;;;;5000810;28;20132;-76
2022/12/09 08:57:03;;;;;;;16.27;14.07;;;3.10;55.50;;;;;;5015858;28;20140;-76
2022/12/09 08:59:48;;;;;;;15.68;13.45;;;3.10;55.40;;;;;;5020237;28;20512;-76
2022/12/09 09:02:32;;;;;;;15.65;13.60;;;3.10;55.40;;;;;;5018351;28;20187;-75
2022/12/09 09:05:17;;;;;;;16.20;14.10;;;3.20;55.60;;;;;;5023934;28;20554;-76
2022/12/09 09:08:02;;;;;;;17.00;12.98;;;3.20;55.80;;;;;;5019053;28;20058;-75
2022/12/09 09:10:46;;;;;;;14.68;12.32;;;3.20;55.50;;;;;;5024319;28;20096;-75
2022/12/09 09:13:30;;;;;;;15.43;13.85;;;3.30;55.60;;;;;;5022230;28;20572;-74
2022/12/09 09:16:18;;;;;;;15.63;13.35;;;3.30;55.50;;;;;;5021980;28;20341;-75
2022/12/09 09:19:04;;;;;;;16.20;13.68;;;3.40;55.70;;;;;;5028242;28;20554;-75
2022/12/09 09:21:48;;;;;;;16.02;14.10;;;3.40;55.60;;;;;;5023805;28;20122;-75
2022/12/09 09:24:33;;;;;;;15.07;13.48;;;3.50;55.70;;;;;;5023937;28;20157;-76
2022/12/09 09:27:17;;;;;;;15.35;13.57;;;3.50;55.70;;;;;;5023054;28;20191;-76
2022/12/09 09:30:03;;;;;;;16.08;14.43;;;3.50;55.60;;;;;;5010610;28;20064;-75
2022/12/09 09:32:48;;;;;;;15.13;13.30;;;3.50;55.60;;;;;;5024459;28;20048;-76
2022/12/09 09:35:32;;;;;;;15.48;13.63;;;3.50;55.60;;;;;;5012768;28;20084;-75
2022/12/09 09:38:17;;;;;;;15.52;13.93;;;3.50;55.60;;;;;;5020414;28;20488;-76
2022/12/09 09:41:14;;;;;;;16.50;13.75;;;3.50;55.60;;;;;;5017185;28;20107;-76
2022/12/09 09:43:59;;;;;;;15.18;13.02;;;3.50;55.70;;;;;;5015810;28;20095;-75
2022/12/09 09:46:46;;;;;;;15.32;13.68;;;3.50;55.70;;;;;;5020184;28;20115;-76
2022/12/09 09:49:35;;;;;;;16.02;13.77;;;3.50;55.70;;;;;;5020244;28;20056;-76
2022/12/09 09:52:25;;;;;;;15.30;13.70;;;3.50;55.70;;;;;;5022041;28;20405;-75
2022/12/09 09:55:15;;;;;;;14.02;12.57;;;3.50;56.30;;;;;;5013283;28;20037;-75
2022/12/09 09:58:23;;;;;;;14.52;13.00;;;3.50;55.80;;;;;;5007810;28;20271;-75
2022/12/09 10:01:11;;;;;;;14.68;12.98;;;3.50;55.80;;;;;;5010531;28;20064;-76
2022/12/09 10:04:21;;;;;;;15.02;13.52;;;3.40;55.60;;;;;;5021594;28;20077;-76
2022/12/09 10:07:29;;;;;;;15.63;13.45;;;3.50;55.90;;;;;;5013922;28;20091;-76
2022/12/09 10:10:16;;;;;;;19.95;14.50;;;3.40;55.70;;;;;;5022236;28;20517;-76
2022/12/09 10:13:03;;;;;;;15.00;13.27;;;3.40;55.70;;;;;;5024469;28;20049;-76
2022/12/09 10:16:21;;;;;;;14.75;13.05;;;3.40;55.80;;;;;;5005525;28;20380;-75
2022/12/09 10:19:24;;;;;;;14.82;13.15;;;3.40;55.80;;;;;;5020791;28;20068;-75
2022/12/09 10:22:16;;;;;;;17.92;13.35;;;3.30;55.70;;;;;;5007564;28;20048;-75
2022/12/09 10:25:24;;;;;;;15.65;13.70;;;3.30;55.70;;;;;;5023698;28;20138;-75
2022/12/09 10:28:24;;;;;;;14.88;13.32;;;3.30;55.80;;;;;;5000682;28;20596;-75
2022/12/09 10:31:10;;;;;;;16.42;14.13;;;3.30;55.80;;;;;;5013301;28;20105;-75
2022/12/09 10:33:55;;;;;;;16.40;14.65;;;3.20;55.60;;;;;;5023391;28;20048;-76
2022/12/09 10:36:44;;;;;;;15.93;13.02;;;3.20;55.70;;;;;;5005546;28;20088;-75
2022/12/09 10:39:28;;;;;;;16.77;14.30;;;3.20;55.70;;;;;;5014819;28;20575;-76
2022/12/09 10:45:17;;;;;;;17.92;15.27;;;3.20;55.70;;;;;;5020747;28;20047;-75
2022/12/09 10:48:01;;;;;;;16.02;14.32;;;3.30;55.80;;;;;;5022076;28;20107;-75
2022/12/09 10:50:46;;;;;;;17.13;15.27;;;3.30;55.80;;;;;;5020523;28;20084;-75
2022/12/09 10:53:32;;;;;;;15.85;14.15;;;3.30;55.80;;;;;;5021074;28;20060;-76
2022/12/09 10:56:24;;;;;;;18.23;15.50;;;3.30;55.80;;;;;;5014819;28;20088;-78
2022/12/09 10:59:18;;;;;;;16.52;14.80;;;3.30;55.80;;;;;;5021050;28;20125;-75
2022/12/09 11:02:19;;;;;;;16.15;14.40;;;3.40;56.00;;;;;;5021007;28;20068;-75
2022/12/09 11:05:20;;;;;;;16.70;14.65;;;3.30;55.80;;;;;;5012004;28;20044;-76
2022/12/09 11:08:05;;;;;;;16.10;14.50;;;3.40;55.90;;;;;;5026318;28;20471;-76
2022/12/09 11:10:50;;;;;;;20.15;15.88;;;3.40;55.90;;;;;;5022041;28;20523;-75
2022/12/09 11:13:40;;;;;;;17.25;15.48;;;3.40;55.90;;;;;;5021821;28;20407;-76
2022/12/09 11:16:26;;;;;;;18.73;15.05;;;3.40;55.90;;;;;;5002387;28;20052;-76
2022/12/09 11:19:13;;;;;;;16.60;14.20;;;3.50;56.10;;;;;;5011077;28;20116;-76
2022/12/09 11:22:21;;;;;;;17.25;15.45;;;3.50;56.10;;;;;;5016804;28;20044;-76
2022/12/09 11:25:14;;;;;;;15.55;14.05;;;3.50;56.10;;;;;;5020189;28;20087;-76
2022/12/09 11:28:29;;;;;;;17.55;15.23;;;3.50;56.00;;;;;;5023193;28;20118;-76
2022/12/09 11:31:18;;;;;;;18.58;15.00;;;3.50;56.00;;;;;;5004411;28;20072;-76
2022/12/09 11:34:15;;;;;;;16.15;14.45;;;3.60;56.20;;;;;;5010935;28;20095;-76
2022/12/09 11:37:01;;;;;;;16.58;14.45;;;3.60;56.20;;;;;;5022438;28;20037;-75
2022/12/09 11:39:49;;;;;;;16.88;15.15;;;3.60;56.20;;;;;;5016619;28;20044;-76
2022/12/09 11:42:34;;;;;;;17.80;14.88;;;3.60;56.20;;;;;;5013313;28;20048;-76
2022/12/09 11:45:29;;;;;;;15.85;13.80;;;3.80;56.50;;;;;;5019366;28;20156;-76
2022/12/09 11:48:28;;;;;;;15.77;14.18;;;3.90;56.50;;;;;;5009231;28;20056;-76
2022/12/09 11:51:27;;;;;;;15.20;13.60;;;4.00;56.40;;;;;;5022225;28;20521;-76
2022/12/09 11:54:27;;;;;;;16.17;12.93;;;4.00;56.30;;;;;;5022044;28;20421;-75
2022/12/09 11:57:26;;;;;;;14.07;12.35;;;4.00;56.20;;;;;;5022298;28;20083;-76
2022/12/09 12:00:29;;;;;;;15.68;11.95;;;4.10;56.40;;;;;;5007775;28;20207;-75
2022/12/09 12:03:41;;;;;;;14.05;12.68;;;4.10;56.30;;;;;;5004194;28;20912;-75
2022/12/09 12:06:49;;;;;;;13.13;11.63;;;4.10;56.40;;;;;;5026844;28;20101;-76
2022/12/09 12:09:52;;;;;;;14.82;11.88;;;4.10;56.40;;;;;;5010265;28;20572;-75
2022/12/09 12:12:43;;;;;;;13.95;12.48;;;4.10;56.40;;;;;;5021137;28;20036;-75
2022/12/09 12:15:49;;;;;;;14.90;12.18;;;4.20;56.50;;;;;;5014850;28;20176;-75
2022/12/09 12:18:47;;;;;;;17.67;11.55;;;4.20;56.60;;;;;;5016703;28;20523;-75
2022/12/09 12:21:55;;;;;;;12.05;10.88;;;4.20;56.70;;;;;;5002383;28;20116;-75
2022/12/09 12:25:09;;;;;;;11.63;10.35;;;4.20;56.50;;;;;;5017901;28;20090;-77
2022/12/09 12:28:19;;;;;;;12.10;10.75;;;4.20;56.50;;;;;;5022203;28;20099;-75
2022/12/09 12:31:25;;;;;;;11.32;10.23;;;4.20;56.50;;;;;;5003065;28;20507;-74
2022/12/09 12:34:28;;;;;;;11.88;10.10;;;4.30;56.70;;;;;;5023738;28;20099;-75
2022/12/09 12:37:31;;;;;;;10.77;9.55;;;4.30;56.70;;;;;;5018492;28;20563;-75
2022/12/09 12:40:56;;;;;;;9.75;8.45;;;4.30;56.70;;;;;;5018597;28;20060;-77
2022/12/09 12:48:01;;;;;;;9.68;8.60;;;4.30;56.60;;;;;;5006648;28;20141;-75
2022/12/09 12:51:16;;;;;;;9.95;7.82;;;4.40;56.80;;;;;;5002342;28;20114;-75
2022/12/09 12:54:21;;;;;;;9.43;8.50;;;4.40;56.80;;;;;;5005265;28;20125;-75
2022/12/09 12:57:19;;;;;;;8.15;7.35;;;4.40;56.70;;;;;;5015651;28;20119;-75
2022/12/09 13:00:19;;;;;;;8.25;7.25;;;4.40;57.20;;;;;;5011240;28;20367;-75
2022/12/09 13:03:33;;;;;;;8.40;7.53;;;4.50;56.90;;;;;;5024509;28;20049;-74
2022/12/09 13:06:20;;;;;;;;;;;4.50;56.90;;;;;;5003136;28;20101;-76
2022/12/09 13:09:12;;;;;;;8.77;7.15;;;4.50;56.80;;;;;;5027113;28;19935;-74
2022/12/09 13:12:17;;;;;;;9.68;6.95;;;4.50;56.70;;;;;;5020274;28;20051;-74
2022/12/09 13:15:02;;;;;;;9.65;6.85;;;4.50;56.80;;;;;;5003471;28;20160;-77
2022/12/09 13:17:48;;;;;;;9.43;7.38;;;4.50;56.80;;;;;;5019537;28;20508;-74
2022/12/09 13:20:47;;;;;;;7.82;6.95;;;4.50;56.80;;;;;;5021878;28;20063;-75
2022/12/09 13:24:07;;;;;;;9.15;7.00;;;4.50;56.80;;;;;;5023745;28;20592;-76
2022/12/09 13:27:06;;;;;;;7.78;6.63;;;4.50;56.80;;;;;;5025563;28;20060;-75
2022/12/09 13:30:02;;;;;;;9.45;6.28;;;4.50;56.70;;;;;;5016179;28;20278;-75
2022/12/09 13:33:01;;;;;;;9.15;6.97;;;4.60;56.90;;;;;;5002849;28;20037;-75
2022/12/09 13:35:53;;;;;;;9.10;6.55;;;4.60;56.90;;;;;;5018456;28;20052;-75
2022/12/09 13:38:41;;;;;;;7.70;6.07;;;4.60;56.90;;;;;;5024697;28;21146;-75
2022/12/09 13:41:26;;;;;;;9.60;7.82;;;4.60;56.90;;;;;;5014403;28;20400;-75
2022/12/09 13:44:13;;;;;;;7.32;6.00;;;4.60;56.90;;;;;;5005785;28;20251;-74
2022/12/09 13:47:13;;;;;;;7.68;6.18;;;4.60;56.90;;;;;;5023684;28;20075;-75
2022/12/09 13:50:06;;;;;;;7.63;6.20;;;4.60;56.90;;;;;;5015916;28;20106;-75
2022/12/09 13:52:55;;;;;;;7.47;6.25;;;4.60;56.80;;;;;;5020673;28;20037;-75
2022/12/09 13:56:06;;;;;;;7.78;5.97;;;4.50;56.60;;;;;;5014634;28;20060;-75
2022/12/09 13:59:15;;;;;;;8.32;6.18;;;4.60;56.90;;;;;;5004824;28;20044;-75
2022/12/09 14:02:13;;;;;;;11.98;6.15;;;4.60;56.90;;;;;;5013579;28;20053;-75
2022/12/09 14:05:10;;;;;;;10.10;6.70;;;4.50;56.70;;;;;;5008920;28;20366;-75
2022/12/09 14:08:14;;;;;;;9.23;5.93;;;4.60;56.90;;;;;;5010354;28;20125;-76
2022/12/09 14:11:34;;;;;;;7.45;5.97;;;4.50;56.70;;;;;;5022086;28;20048;-76
2022/12/09 14:14:24;;;;;;;9.32;5.68;;;4.50;56.70;;;;;;5020054;28;20044;-75
2022/12/09 14:17:32;;;;;;;8.27;5.03;;;4.50;56.70;;;;;;5000022;28;20049;-75
2022/12/09 14:20:16;;;;;;;6.28;5.10;;;4.50;56.80;;;;;;5021855;28;20487;-76
2022/12/09 14:23:06;;;;;;;8.90;5.75;;;4.50;56.80;;;;;;5024162;28;20051;-76
2022/12/09 14:25:59;;;;;;;10.52;5.50;;;4.50;56.80;;;;;;5010246;28;20064;-75
2022/12/09 14:28:52;;;;;;;;;;;4.50;56.80;;;;;;5012499;28;20056;-75
2022/12/09 14:31:55;;;;;;;6.35;4.50;;;4.50;56.80;;;;;;5027900;28;19959;-75
2022/12/09 14:34:42;;;;;;;6.72;5.03;;;4.50;56.80;;;;;;5025605;28;20068;-75
2022/12/09 14:37:34;;;;;;;6.55;4.38;;;4.50;56.80;;;;;;5018164;28;20183;-75
2022/12/09 14:40:37;;;;;;;7.68;4.95;;;4.50;56.80;;;;;;5033774;28;20060;-75
2022/12/09 14:43:45;;;;;;;8.02;4.60;;;4.50;56.80;;;;;;5037868;28;20045;-75
2022/12/09 14:46:38;;;;;;;6.18;4.70;;;4.50;56.80;;;;;;5022153;28;20103;-76
2022/12/09 14:49:27;;;;;;;7.55;4.55;;;4.50;56.80;;;;;;5032972;28;20080;-75
2022/12/09 14:52:29;;;;;;;8.18;4.63;;;4.50;56.80;;;;;;5039735;28;20079;-75